Terminal Aerodrome Forecast
Issued by NWS Missoula, MT

Home | Current Version | Previous Version | Text Only | Print | Product List | Glossary On
Versions: 1 2 3 4 5 6 7 8 9 10 11 12
000
FTUS45 KMSO 180520
TAFMSO
TAF
KMSO 180520Z 1806/1906 35006KT P6SM SKC
     FM182000 35014G22KT P6SM SCT080
     FM190200 36008KT P6SM SCT080=

USA.gov is the U.S. government's official web portal to all federal, state and local government web resources and services.